aviador You're here:

KGLD Decoded Metar

GOODLAND in KS, USA
Report Time2017-05-24 16:53:00
UTC Time2017-05-24 17:53:53
Flight Rules vfr VFR
Wind180° at 10 kt
W.Decomp.*RWY 17: 10.0 kt HW 0.2 kt RCW
RWY 12: 6.3 kt HW 7.8 kt RCW
RWY 23: 5.2 kt HW 8.6 kt LCW
W.Rank180° ranks 1
Current wind is below 180° avg. (12.2)
Visibility9999 m
Phenomena:N/A
Clouds:N/A
Expected CloudBase > 4,400 ft AGL from Temp-Dew spread
CeilingNone
Temp16°C (ISA +8)
Dew Point05°C (48% RH)
AAT11.3°C
QNH1009 hPa
Density Alt4,879 ft
Elevation3,652 ft
Report Wrong Elevation
Raw Report
KGLD 241653Z AUTO 18010KT 10SM CLR 16/05 A2980 RMK AO2 SLP076
T01560050=

Extra information for KGLD:More info

Metar Taf Metar & Taf Last 4 Metars F.Rules Stats Wind Profile Meteogram Temp Stats Airport Information Weather charts Add Link Nearby VenuesMetar ALERT Operation Metar Decoded Social comments

AIRNAV info for KGLD